Terminal Aerodrome Forecast
Issued by NWS

Home | Current Version | Previous Version | Text Only | Print | Product List | Glossary On
Versions: 1 2 3 4 5 6 7 8 9 10 11 12 13 14 15 16 17 18
000
FTUS43 KFGF 302300 RRA
TAFBJI
TAF
KBJI 302341Z 0100/0124 13015G22KT P6SM BKN060
     FM011100 14014G22KT P6SM BKN025
     FM011400 14014G20KT P6SM BKN015
     FM011900 23012G18KT P6SM BKN025=

USA.gov is the U.S. government's official web portal to all federal, state and local government web resources and services.